sensor_id;sensor_type;location;lat;lon;timestamp;temperature;humidity
25983;DHT22;13773;48.868;10.730;2023-07-13T00:00:12;17.30;99.90
25983;DHT22;13773;48.868;10.730;2023-07-13T00:02:41;17.30;99.90
25983;DHT22;13773;48.868;10.730;2023-07-13T00:05:07;17.30;99.90
25983;DHT22;13773;48.868;10.730;2023-07-13T00:07:33;17.40;99.90
25983;DHT22;13773;48.868;10.730;2023-07-13T00:09:59;17.40;99.90
25983;DHT22;13773;48.868;10.730;2023-07-13T00:12:30;17.40;99.90
25983;DHT22;13773;48.868;10.730;2023-07-13T00:14:57;17.40;99.90
25983;DHT22;13773;48.868;10.730;2023-07-13T00:17:24;17.40;99.90
25983;DHT22;13773;48.868;10.730;2023-07-13T00:19:50;17.30;99.90
25983;DHT22;13773;48.868;10.730;2023-07-13T00:22:15;17.30;99.90
25983;DHT22;13773;48.868;10.730;2023-07-13T00:24:44;17.30;99.90
25983;DHT22;13773;48.868;10.730;2023-07-13T00:27:09;17.30;99.90
25983;DHT22;13773;48.868;10.730;2023-07-13T00:29:36;17.20;99.90
25983;DHT22;13773;48.868;10.730;2023-07-13T00:32:04;17.30;99.90
25983;DHT22;13773;48.868;10.730;2023-07-13T00:34:30;17.30;99.90
25983;DHT22;13773;48.868;10.730;2023-07-13T00:36:56;17.30;99.90
25983;DHT22;13773;48.868;10.730;2023-07-13T00:39:22;17.30;99.90
25983;DHT22;13773;48.868;10.730;2023-07-13T00:41:48;17.30;99.90
25983;DHT22;13773;48.868;10.730;2023-07-13T00:44:15;17.30;99.90
25983;DHT22;13773;48.868;10.730;2023-07-13T00:46:41;17.30;99.90
25983;DHT22;13773;48.868;10.730;2023-07-13T00:49:10;17.30;99.90
25983;DHT22;13773;48.868;10.730;2023-07-13T00:52:28;17.30;99.90
25983;DHT22;13773;48.868;10.730;2023-07-13T00:54:45;17.30;99.90
25983;DHT22;13773;48.868;10.730;2023-07-13T00:57:15;17.20;99.90
25983;DHT22;13773;48.868;10.730;2023-07-13T00:59:45;17.10;99.90
25983;DHT22;13773;48.868;10.730;2023-07-13T01:02:11;17.10;99.90
25983;DHT22;13773;48.868;10.730;2023-07-13T01:04:37;17.10;99.90
25983;DHT22;13773;48.868;10.730;2023-07-13T01:07:05;17.10;99.90
25983;DHT22;13773;48.868;10.730;2023-07-13T01:09:31;17.00;99.90
25983;DHT22;13773;48.868;10.730;2023-07-13T01:11:57;17.00;99.90
25983;DHT22;13773;48.868;10.730;2023-07-13T01:14:24;17.00;99.90
25983;DHT22;13773;48.868;10.730;2023-07-13T01:16:50;17.00;99.90
25983;DHT22;13773;48.868;10.730;2023-07-13T01:21:52;16.90;99.90
25983;DHT22;13773;48.868;10.730;2023-07-13T01:24:18;16.80;99.90
25983;DHT22;13773;48.868;10.730;2023-07-13T01:26:45;16.80;99.90
25983;DHT22;13773;48.868;10.730;2023-07-13T01:29:11;16.70;99.90
25983;DHT22;13773;48.868;10.730;2023-07-13T01:31:36;16.60;99.90
25983;DHT22;13773;48.868;10.730;2023-07-13T01:34:04;16.60;99.90
25983;DHT22;13773;48.868;10.730;2023-07-13T01:36:30;16.60;99.90
25983;DHT22;13773;48.868;10.730;2023-07-13T01:38:56;16.50;99.90
25983;DHT22;13773;48.868;10.730;2023-07-13T01:41:22;16.50;99.90
25983;DHT22;13773;48.868;10.730;2023-07-13T01:43:47;16.40;99.90
25983;DHT22;13773;48.868;10.730;2023-07-13T01:46:13;16.40;99.90
25983;DHT22;13773;48.868;10.730;2023-07-13T01:48:39;16.40;99.90
25983;DHT22;13773;48.868;10.730;2023-07-13T01:51:04;16.40;99.90
25983;DHT22;13773;48.868;10.730;2023-07-13T01:53:30;16.40;99.90
25983;DHT22;13773;48.868;10.730;2023-07-13T01:55:56;16.30;99.90
25983;DHT22;13773;48.868;10.730;2023-07-13T01:58:21;16.40;99.90
25983;DHT22;13773;48.868;10.730;2023-07-13T02:00:49;16.30;99.90
25983;DHT22;13773;48.868;10.730;2023-07-13T02:03:15;16.30;99.90
25983;DHT22;13773;48.868;10.730;2023-07-13T02:05:43;16.20;99.90
25983;DHT22;13773;48.868;10.730;2023-07-13T02:08:09;16.20;99.90
25983;DHT22;13773;48.868;10.730;2023-07-13T02:10:36;16.20;99.90
25983;DHT22;13773;48.868;10.730;2023-07-13T02:13:05;16.20;99.90
25983;DHT22;13773;48.868;10.730;2023-07-13T02:15:31;16.20;99.90
25983;DHT22;13773;48.868;10.730;2023-07-13T02:17:57;16.10;99.90
25983;DHT22;13773;48.868;10.730;2023-07-13T02:20:24;16.10;99.90
25983;DHT22;13773;48.868;10.730;2023-07-13T02:22:50;16.10;99.90
25983;DHT22;13773;48.868;10.730;2023-07-13T02:25:15;16.10;99.90
25983;DHT22;13773;48.868;10.730;2023-07-13T02:27:42;16.00;99.90
25983;DHT22;13773;48.868;10.730;2023-07-13T02:30:08;16.10;99.90
25983;DHT22;13773;48.868;10.730;2023-07-13T02:32:34;16.10;99.90
25983;DHT22;13773;48.868;10.730;2023-07-13T02:35:00;16.10;99.90
25983;DHT22;13773;48.868;10.730;2023-07-13T02:37:26;16.10;99.90
25983;DHT22;13773;48.868;10.730;2023-07-13T02:39:52;16.00;99.90
25983;DHT22;13773;48.868;10.730;2023-07-13T02:42:17;16.00;99.90
25983;DHT22;13773;48.868;10.730;2023-07-13T02:44:43;16.00;99.90
25983;DHT22;13773;48.868;10.730;2023-07-13T02:47:09;15.90;99.90
25983;DHT22;13773;48.868;10.730;2023-07-13T02:49:34;15.90;99.90
25983;DHT22;13773;48.868;10.730;2023-07-13T02:52:01;15.90;99.90
25983;DHT22;13773;48.868;10.730;2023-07-13T02:54:27;15.80;99.90
25983;DHT22;13773;48.868;10.730;2023-07-13T02:56:53;15.60;99.90
25983;DHT22;13773;48.868;10.730;2023-07-13T02:59:18;15.60;99.90
25983;DHT22;13773;48.868;10.730;2023-07-13T03:01:44;15.60;99.90
25983;DHT22;13773;48.868;10.730;2023-07-13T03:04:10;15.50;99.90
25983;DHT22;13773;48.868;10.730;2023-07-13T03:06:36;15.50;99.90
25983;DHT22;13773;48.868;10.730;2023-07-13T03:09:01;15.50;99.90
25983;DHT22;13773;48.868;10.730;2023-07-13T03:11:27;15.30;99.90
25983;DHT22;13773;48.868;10.730;2023-07-13T03:13:53;15.30;99.90
25983;DHT22;13773;48.868;10.730;2023-07-13T03:16:19;15.30;99.90
25983;DHT22;13773;48.868;10.730;2023-07-13T03:18:46;15.30;99.90
25983;DHT22;13773;48.868;10.730;2023-07-13T03:21:14;15.30;99.90
25983;DHT22;13773;48.868;10.730;2023-07-13T03:23:40;15.30;99.90
25983;DHT22;13773;48.868;10.730;2023-07-13T03:26:12;15.40;99.90
25983;DHT22;13773;48.868;10.730;2023-07-13T03:28:39;15.40;99.90
25983;DHT22;13773;48.868;10.730;2023-07-13T03:31:12;15.30;99.90
25983;DHT22;13773;48.868;10.730;2023-07-13T03:33:38;15.40;99.90
25983;DHT22;13773;48.868;10.730;2023-07-13T03:36:05;15.40;99.90
25983;DHT22;13773;48.868;10.730;2023-07-13T03:38:32;15.40;99.90
25983;DHT22;13773;48.868;10.730;2023-07-13T03:40:57;15.40;99.90
25983;DHT22;13773;48.868;10.730;2023-07-13T03:43:23;15.50;99.90
25983;DHT22;13773;48.868;10.730;2023-07-13T03:45:49;15.50;99.90
25983;DHT22;13773;48.868;10.730;2023-07-13T03:48:15;15.60;99.90
25983;DHT22;13773;48.868;10.730;2023-07-13T03:50:40;15.60;99.90
25983;DHT22;13773;48.868;10.730;2023-07-13T03:53:06;15.70;99.90
25983;DHT22;13773;48.868;10.730;2023-07-13T03:55:32;15.80;99.90
25983;DHT22;13773;48.868;10.730;2023-07-13T04:00:43;15.70;99.90
25983;DHT22;13773;48.868;10.730;2023-07-13T04:03:09;15.70;99.90
25983;DHT22;13773;48.868;10.730;2023-07-13T04:05:34;15.70;99.90
25983;DHT22;13773;48.868;10.730;2023-07-13T04:08:01;15.70;99.90
25983;DHT22;13773;48.868;10.730;2023-07-13T04:10:28;15.70;99.90
25983;DHT22;13773;48.868;10.730;2023-07-13T04:12:54;15.70;99.90
25983;DHT22;13773;48.868;10.730;2023-07-13T04:15:20;15.70;99.90
25983;DHT22;13773;48.868;10.730;2023-07-13T04:17:45;15.80;99.90
25983;DHT22;13773;48.868;10.730;2023-07-13T04:20:11;15.80;99.90
25983;DHT22;13773;48.868;10.730;2023-07-13T04:22:37;15.80;99.90
25983;DHT22;13773;48.868;10.730;2023-07-13T04:25:03;15.80;99.90
25983;DHT22;13773;48.868;10.730;2023-07-13T04:27:30;15.90;99.90
25983;DHT22;13773;48.868;10.730;2023-07-13T04:29:56;15.90;99.90
25983;DHT22;13773;48.868;10.730;2023-07-13T04:32:21;16.00;99.90
25983;DHT22;13773;48.868;10.730;2023-07-13T04:34:47;16.00;99.90
25983;DHT22;13773;48.868;10.730;2023-07-13T04:37:19;16.10;99.90
25983;DHT22;13773;48.868;10.730;2023-07-13T04:39:45;16.20;99.90
25983;DHT22;13773;48.868;10.730;2023-07-13T04:42:11;16.20;99.90
25983;DHT22;13773;48.868;10.730;2023-07-13T04:44:37;16.20;99.90
25983;DHT22;13773;48.868;10.730;2023-07-13T04:47:03;16.30;99.90
25983;DHT22;13773;48.868;10.730;2023-07-13T04:49:28;16.30;99.90
25983;DHT22;13773;48.868;10.730;2023-07-13T04:51:54;16.40;99.90
25983;DHT22;13773;48.868;10.730;2023-07-13T04:54:20;16.50;99.90
25983;DHT22;13773;48.868;10.730;2023-07-13T04:56:47;16.40;99.90
25983;DHT22;13773;48.868;10.730;2023-07-13T04:59:12;16.50;99.90
25983;DHT22;13773;48.868;10.730;2023-07-13T05:01:38;16.50;99.90
25983;DHT22;13773;48.868;10.730;2023-07-13T05:04:04;16.40;99.90
25983;DHT22;13773;48.868;10.730;2023-07-13T05:06:30;16.50;99.90
25983;DHT22;13773;48.868;10.730;2023-07-13T05:08:56;16.60;99.90
25983;DHT22;13773;48.868;10.730;2023-07-13T05:11:22;16.70;99.90
25983;DHT22;13773;48.868;10.730;2023-07-13T05:13:48;16.80;99.90
25983;DHT22;13773;48.868;10.730;2023-07-13T05:16:13;16.80;99.90
25983;DHT22;13773;48.868;10.730;2023-07-13T05:18:39;16.70;99.90
25983;DHT22;13773;48.868;10.730;2023-07-13T05:21:07;16.90;99.90
25983;DHT22;13773;48.868;10.730;2023-07-13T05:23:34;17.30;99.90
25983;DHT22;13773;48.868;10.730;2023-07-13T05:26:02;17.70;99.90
25983;DHT22;13773;48.868;10.730;2023-07-13T05:28:31;18.20;99.90
25983;DHT22;13773;48.868;10.730;2023-07-13T05:30:57;19.20;99.90
25983;DHT22;13773;48.868;10.730;2023-07-13T05:33:23;19.90;99.90
25983;DHT22;13773;48.868;10.730;2023-07-13T05:35:50;20.30;99.90
25983;DHT22;13773;48.868;10.730;2023-07-13T05:38:16;20.10;99.90
25983;DHT22;13773;48.868;10.730;2023-07-13T05:40:46;19.60;99.90
25983;DHT22;13773;48.868;10.730;2023-07-13T05:43:12;19.20;99.90
25983;DHT22;13773;48.868;10.730;2023-07-13T05:45:38;18.80;99.90
25983;DHT22;13773;48.868;10.730;2023-07-13T05:48:06;18.90;99.90
25983;DHT22;13773;48.868;10.730;2023-07-13T05:50:31;19.00;99.90
25983;DHT22;13773;48.868;10.730;2023-07-13T05:52:57;18.70;99.90
25983;DHT22;13773;48.868;10.730;2023-07-13T05:55:23;18.70;99.90
25983;DHT22;13773;48.868;10.730;2023-07-13T05:57:49;19.10;99.90
25983;DHT22;13773;48.868;10.730;2023-07-13T06:00:15;19.20;99.90
25983;DHT22;13773;48.868;10.730;2023-07-13T06:02:41;19.00;99.90
25983;DHT22;13773;48.868;10.730;2023-07-13T06:05:07;19.10;99.90
25983;DHT22;13773;48.868;10.730;2023-07-13T06:07:33;19.20;99.90
25983;DHT22;13773;48.868;10.730;2023-07-13T06:09:59;19.20;99.90
25983;DHT22;13773;48.868;10.730;2023-07-13T06:12:25;19.10;99.90
25983;DHT22;13773;48.868;10.730;2023-07-13T06:14:52;19.00;99.90
25983;DHT22;13773;48.868;10.730;2023-07-13T06:17:18;19.10;99.90
25983;DHT22;13773;48.868;10.730;2023-07-13T06:19:44;19.20;99.90
25983;DHT22;13773;48.868;10.730;2023-07-13T06:22:10;19.30;99.90
25983;DHT22;13773;48.868;10.730;2023-07-13T06:24:35;19.40;99.90
25983;DHT22;13773;48.868;10.730;2023-07-13T06:27:01;19.70;99.90
25983;DHT22;13773;48.868;10.730;2023-07-13T06:29:27;19.60;99.90
25983;DHT22;13773;48.868;10.730;2023-07-13T06:31:53;19.60;99.90
25983;DHT22;13773;48.868;10.730;2023-07-13T06:34:19;19.80;99.90
25983;DHT22;13773;48.868;10.730;2023-07-13T06:36:44;20.20;99.90
25983;DHT22;13773;48.868;10.730;2023-07-13T06:39:10;20.20;99.90
25983;DHT22;13773;48.868;10.730;2023-07-13T06:41:35;20.20;99.90
25983;DHT22;13773;48.868;10.730;2023-07-13T06:44:01;20.40;99.90
25983;DHT22;13773;48.868;10.730;2023-07-13T06:46:28;20.40;99.90
25983;DHT22;13773;48.868;10.730;2023-07-13T06:48:56;19.90;99.90
25983;DHT22;13773;48.868;10.730;2023-07-13T06:51:22;20.10;99.90
25983;DHT22;13773;48.868;10.730;2023-07-13T06:53:47;19.80;99.90
25983;DHT22;13773;48.868;10.730;2023-07-13T06:56:13;19.90;99.90
25983;DHT22;13773;48.868;10.730;2023-07-13T06:58:39;19.90;99.90
25983;DHT22;13773;48.868;10.730;2023-07-13T07:01:05;20.10;99.90
25983;DHT22;13773;48.868;10.730;2023-07-13T07:03:31;20.30;99.90
25983;DHT22;13773;48.868;10.730;2023-07-13T07:06:19;20.40;99.90
25983;DHT22;13773;48.868;10.730;2023-07-13T07:08:45;20.40;99.90
25983;DHT22;13773;48.868;10.730;2023-07-13T07:11:18;20.20;99.90
25983;DHT22;13773;48.868;10.730;2023-07-13T07:13:44;20.30;99.90
25983;DHT22;13773;48.868;10.730;2023-07-13T07:16:09;20.40;99.90
25983;DHT22;13773;48.868;10.730;2023-07-13T07:18:35;20.40;99.90
25983;DHT22;13773;48.868;10.730;2023-07-13T07:21:01;20.60;99.90
25983;DHT22;13773;48.868;10.730;2023-07-13T07:23:28;20.90;99.90
25983;DHT22;13773;48.868;10.730;2023-07-13T07:25:54;21.60;99.90
25983;DHT22;13773;48.868;10.730;2023-07-13T07:28:19;21.60;99.90
25983;DHT22;13773;48.868;10.730;2023-07-13T07:30:46;21.40;99.90
25983;DHT22;13773;48.868;10.730;2023-07-13T07:33:12;21.70;99.90
25983;DHT22;13773;48.868;10.730;2023-07-13T07:35:38;22.00;99.90
25983;DHT22;13773;48.868;10.730;2023-07-13T07:38:04;22.10;99.90
25983;DHT22;13773;48.868;10.730;2023-07-13T07:40:30;20.50;99.90
25983;DHT22;13773;48.868;10.730;2023-07-13T07:42:57;21.50;99.90
25983;DHT22;13773;48.868;10.730;2023-07-13T07:45:23;21.10;99.90
25983;DHT22;13773;48.868;10.730;2023-07-13T07:47:49;21.20;99.90
25983;DHT22;13773;48.868;10.730;2023-07-13T07:50:15;21.50;99.90
25983;DHT22;13773;48.868;10.730;2023-07-13T07:52:41;21.70;99.90
25983;DHT22;13773;48.868;10.730;2023-07-13T07:55:08;21.90;99.90
25983;DHT22;13773;48.868;10.730;2023-07-13T07:57:33;21.90;99.90
25983;DHT22;13773;48.868;10.730;2023-07-13T07:59:59;22.20;99.90
25983;DHT22;13773;48.868;10.730;2023-07-13T08:02:25;22.10;99.90
25983;DHT22;13773;48.868;10.730;2023-07-13T08:04:51;22.30;99.90
25983;DHT22;13773;48.868;10.730;2023-07-13T08:07:18;22.70;99.90
25983;DHT22;13773;48.868;10.730;2023-07-13T08:09:44;22.80;99.90
25983;DHT22;13773;48.868;10.730;2023-07-13T08:12:09;23.20;99.90
25983;DHT22;13773;48.868;10.730;2023-07-13T08:14:35;23.30;99.90
25983;DHT22;13773;48.868;10.730;2023-07-13T08:17:01;23.40;99.90
25983;DHT22;13773;48.868;10.730;2023-07-13T08:19:26;23.00;99.90
25983;DHT22;13773;48.868;10.730;2023-07-13T08:21:52;22.80;99.90
25983;DHT22;13773;48.868;10.730;2023-07-13T08:24:18;22.00;99.90
25983;DHT22;13773;48.868;10.730;2023-07-13T08:26:47;21.50;99.90
25983;DHT22;13773;48.868;10.730;2023-07-13T08:29:16;21.40;99.90
25983;DHT22;13773;48.868;10.730;2023-07-13T08:31:42;21.80;99.90
25983;DHT22;13773;48.868;10.730;2023-07-13T08:34:08;21.70;99.90
25983;DHT22;13773;48.868;10.730;2023-07-13T08:36:33;21.80;99.90
25983;DHT22;13773;48.868;10.730;2023-07-13T08:38:59;22.10;99.90
25983;DHT22;13773;48.868;10.730;2023-07-13T08:41:25;22.50;99.90
25983;DHT22;13773;48.868;10.730;2023-07-13T08:43:56;22.20;99.90
25983;DHT22;13773;48.868;10.730;2023-07-13T08:46:24;22.30;99.90
25983;DHT22;13773;48.868;10.730;2023-07-13T08:48:53;22.50;99.90
25983;DHT22;13773;48.868;10.730;2023-07-13T08:51:45;22.80;99.90
25983;DHT22;13773;48.868;10.730;2023-07-13T08:54:20;22.80;99.90
25983;DHT22;13773;48.868;10.730;2023-07-13T08:56:49;22.70;99.90
25983;DHT22;13773;48.868;10.730;2023-07-13T08:59:20;22.70;99.90
25983;DHT22;13773;48.868;10.730;2023-07-13T09:04:53;22.70;99.90
25983;DHT22;13773;48.868;10.730;2023-07-13T09:07:58;22.50;99.90
25983;DHT22;13773;48.868;10.730;2023-07-13T09:10:25;22.80;99.90
25983;DHT22;13773;48.868;10.730;2023-07-13T09:15:30;23.30;99.90
25983;DHT22;13773;48.868;10.730;2023-07-13T09:21:24;23.20;99.90
25983;DHT22;13773;48.868;10.730;2023-07-13T09:23:53;23.30;99.90
25983;DHT22;13773;48.868;10.730;2023-07-13T09:26:22;23.30;99.90
25983;DHT22;13773;48.868;10.730;2023-07-13T09:28:53;23.00;99.90
25983;DHT22;13773;48.868;10.730;2023-07-13T09:31:39;22.70;99.90
25983;DHT22;13773;48.868;10.730;2023-07-13T09:34:10;22.50;99.90
25983;DHT22;13773;48.868;10.730;2023-07-13T09:36:36;25.10;99.90
25983;DHT22;13773;48.868;10.730;2023-07-13T09:39:09;23.00;99.90
25983;DHT22;13773;48.868;10.730;2023-07-13T09:41:50;22.90;99.90
25983;DHT22;13773;48.868;10.730;2023-07-13T09:44:18;22.80;99.90
25983;DHT22;13773;48.868;10.730;2023-07-13T09:46:55;22.50;99.90
25983;DHT22;13773;48.868;10.730;2023-07-13T09:49:25;22.40;99.90
25983;DHT22;13773;48.868;10.730;2023-07-13T09:52:00;22.90;99.90
25983;DHT22;13773;48.868;10.730;2023-07-13T09:54:27;22.90;99.80
25983;DHT22;13773;48.868;10.730;2023-07-13T09:56:59;23.00;99.90
25983;DHT22;13773;48.868;10.730;2023-07-13T09:59:35;23.10;99.80
25983;DHT22;13773;48.868;10.730;2023-07-13T10:02:02;22.00;97.90
25983;DHT22;13773;48.868;10.730;2023-07-13T10:05:14;23.40;98.70
25983;DHT22;13773;48.868;10.730;2023-07-13T10:07:44;23.80;99.20
25983;DHT22;13773;48.868;10.730;2023-07-13T10:10:21;24.10;99.50
25983;DHT22;13773;48.868;10.730;2023-07-13T10:12:49;23.80;99.10
25983;DHT22;13773;48.868;10.730;2023-07-13T10:15:21;23.70;98.00
25983;DHT22;13773;48.868;10.730;2023-07-13T10:17:48;23.70;99.10
25983;DHT22;13773;48.868;10.730;2023-07-13T10:20:15;23.90;98.30
25983;DHT22;13773;48.868;10.730;2023-07-13T10:23:04;24.10;99.40
25983;DHT22;13773;48.868;10.730;2023-07-13T10:25:36;24.30;99.20
25983;DHT22;13773;48.868;10.730;2023-07-13T10:30:39;24.10;97.50
25983;DHT22;13773;48.868;10.730;2023-07-13T10:33:12;23.90;97.10
25983;DHT22;13773;48.868;10.730;2023-07-13T10:35:41;23.90;96.60
25983;DHT22;13773;48.868;10.730;2023-07-13T10:38:12;22.30;97.50
25983;DHT22;13773;48.868;10.730;2023-07-13T10:40:39;23.10;98.50
25983;DHT22;13773;48.868;10.730;2023-07-13T10:43:19;23.70;98.10
25983;DHT22;13773;48.868;10.730;2023-07-13T10:45:46;24.10;96.70
25983;DHT22;13773;48.868;10.730;2023-07-13T10:48:16;24.00;98.10
25983;DHT22;13773;48.868;10.730;2023-07-13T10:50:45;24.80;97.70
25983;DHT22;13773;48.868;10.730;2023-07-13T10:53:31;24.90;97.10
25983;DHT22;13773;48.868;10.730;2023-07-13T10:56:03;25.50;96.30
25983;DHT22;13773;48.868;10.730;2023-07-13T10:58:35;25.40;96.50
25983;DHT22;13773;48.868;10.730;2023-07-13T11:01:10;25.60;95.40
25983;DHT22;13773;48.868;10.730;2023-07-13T11:06:37;25.30;95.80
25983;DHT22;13773;48.868;10.730;2023-07-13T11:09:31;25.00;95.60
25983;DHT22;13773;48.868;10.730;2023-07-13T11:12:07;24.30;96.00
25983;DHT22;13773;48.868;10.730;2023-07-13T11:15:03;24.30;95.30
25983;DHT22;13773;48.868;10.730;2023-07-13T11:25:26;24.70;95.00
25983;DHT22;13773;48.868;10.730;2023-07-13T11:30:49;24.90;94.20
25983;DHT22;13773;48.868;10.730;2023-07-13T11:36:19;24.80;94.20
25983;DHT22;13773;48.868;10.730;2023-07-13T11:41:52;24.90;93.40
25983;DHT22;13773;48.868;10.730;2023-07-13T11:44:23;24.50;93.90
25983;DHT22;13773;48.868;10.730;2023-07-13T11:46:52;24.10;92.60
25983;DHT22;13773;48.868;10.730;2023-07-13T11:49:20;24.20;93.70
25983;DHT22;13773;48.868;10.730;2023-07-13T11:51:47;24.30;93.50
25983;DHT22;13773;48.868;10.730;2023-07-13T11:54:34;24.80;92.70
25983;DHT22;13773;48.868;10.730;2023-07-13T11:57:29;24.70;92.90
25983;DHT22;13773;48.868;10.730;2023-07-13T11:59:58;25.00;92.80
25983;DHT22;13773;48.868;10.730;2023-07-13T12:02:37;25.10;92.00
25983;DHT22;13773;48.868;10.730;2023-07-13T12:05:04;25.10;92.00
25983;DHT22;13773;48.868;10.730;2023-07-13T12:07:32;24.50;91.20
25983;DHT22;13773;48.868;10.730;2023-07-13T12:10:25;24.40;92.80
25983;DHT22;13773;48.868;10.730;2023-07-13T12:15:27;24.40;92.60
25983;DHT22;13773;48.868;10.730;2023-07-13T12:17:54;24.30;91.80
25983;DHT22;13773;48.868;10.730;2023-07-13T12:20:27;24.20;91.50
25983;DHT22;13773;48.868;10.730;2023-07-13T12:22:54;24.60;92.90
25983;DHT22;13773;48.868;10.730;2023-07-13T12:25:23;25.10;91.80
25983;DHT22;13773;48.868;10.730;2023-07-13T12:27:50;25.50;91.70
25983;DHT22;13773;48.868;10.730;2023-07-13T12:33:06;26.20;91.40
25983;DHT22;13773;48.868;10.730;2023-07-13T12:35:44;26.20;88.80
25983;DHT22;13773;48.868;10.730;2023-07-13T12:38:11;25.70;90.50
25983;DHT22;13773;48.868;10.730;2023-07-13T12:40:38;26.00;90.90
25983;DHT22;13773;48.868;10.730;2023-07-13T12:43:11;26.00;90.40
25983;DHT22;13773;48.868;10.730;2023-07-13T12:45:38;26.20;90.90
25983;DHT22;13773;48.868;10.730;2023-07-13T12:48:13;26.60;89.80
25983;DHT22;13773;48.868;10.730;2023-07-13T12:50:42;26.60;90.00
25983;DHT22;13773;48.868;10.730;2023-07-13T12:53:20;26.80;88.00
25983;DHT22;13773;48.868;10.730;2023-07-13T12:56:01;26.60;87.50
25983;DHT22;13773;48.868;10.730;2023-07-13T12:58:39;26.40;86.70
25983;DHT22;13773;48.868;10.730;2023-07-13T13:01:13;25.70;86.80
25983;DHT22;13773;48.868;10.730;2023-07-13T13:03:45;25.20;89.30
25983;DHT22;13773;48.868;10.730;2023-07-13T13:08:55;26.00;90.40
25983;DHT22;13773;48.868;10.730;2023-07-13T13:11:23;26.30;90.00
25983;DHT22;13773;48.868;10.730;2023-07-13T13:13:49;25.90;89.30
25983;DHT22;13773;48.868;10.730;2023-07-13T13:16:33;26.00;88.00
25983;DHT22;13773;48.868;10.730;2023-07-13T13:19:14;26.10;88.20
25983;DHT22;13773;48.868;10.730;2023-07-13T13:21:42;26.00;88.80
25983;DHT22;13773;48.868;10.730;2023-07-13T13:24:14;25.90;89.20
25983;DHT22;13773;48.868;10.730;2023-07-13T13:26:40;26.00;88.50
25983;DHT22;13773;48.868;10.730;2023-07-13T13:29:13;26.10;86.40
25983;DHT22;13773;48.868;10.730;2023-07-13T13:31:39;26.00;86.10
25983;DHT22;13773;48.868;10.730;2023-07-13T13:34:12;26.20;87.80
25983;DHT22;13773;48.868;10.730;2023-07-13T13:36:41;26.30;86.60
25983;DHT22;13773;48.868;10.730;2023-07-13T13:41:47;25.70;85.20
25983;DHT22;13773;48.868;10.730;2023-07-13T13:44:15;25.40;87.20
25983;DHT22;13773;48.868;10.730;2023-07-13T13:46:42;25.80;87.30
25983;DHT22;13773;48.868;10.730;2023-07-13T13:49:16;26.10;87.90
25983;DHT22;13773;48.868;10.730;2023-07-13T13:51:43;25.80;87.90
25983;DHT22;13773;48.868;10.730;2023-07-13T13:54:12;28.30;89.00
25983;DHT22;13773;48.868;10.730;2023-07-13T13:56:38;25.90;86.10
25983;DHT22;13773;48.868;10.730;2023-07-13T13:59:04;25.70;87.50
25983;DHT22;13773;48.868;10.730;2023-07-13T14:01:31;25.90;84.80
25983;DHT22;13773;48.868;10.730;2023-07-13T14:03:56;25.70;85.90
25983;DHT22;13773;48.868;10.730;2023-07-13T14:06:22;25.60;82.90
25983;DHT22;13773;48.868;10.730;2023-07-13T14:08:48;25.90;84.10
25983;DHT22;13773;48.868;10.730;2023-07-13T14:11:17;25.90;82.60
25983;DHT22;13773;48.868;10.730;2023-07-13T14:13:48;26.10;82.60
25983;DHT22;13773;48.868;10.730;2023-07-13T14:16:19;26.60;82.70
25983;DHT22;13773;48.868;10.730;2023-07-13T14:18:45;26.20;83.20
25983;DHT22;13773;48.868;10.730;2023-07-13T14:21:20;25.90;83.90
25983;DHT22;13773;48.868;10.730;2023-07-13T14:23:47;25.30;86.10
25983;DHT22;13773;48.868;10.730;2023-07-13T14:26:15;25.10;85.70
25983;DHT22;13773;48.868;10.730;2023-07-13T14:28:43;25.10;84.30
25983;DHT22;13773;48.868;10.730;2023-07-13T14:31:11;25.10;85.50
25983;DHT22;13773;48.868;10.730;2023-07-13T14:33:38;25.30;85.40
25983;DHT22;13773;48.868;10.730;2023-07-13T14:38:50;25.10;84.80
25983;DHT22;13773;48.868;10.730;2023-07-13T14:41:16;25.40;86.00
25983;DHT22;13773;48.868;10.730;2023-07-13T14:43:42;25.30;84.30
25983;DHT22;13773;48.868;10.730;2023-07-13T14:46:20;25.10;84.40
25983;DHT22;13773;48.868;10.730;2023-07-13T14:48:48;24.60;81.80
25983;DHT22;13773;48.868;10.730;2023-07-13T14:51:14;24.70;83.90
25983;DHT22;13773;48.868;10.730;2023-07-13T14:53:40;25.10;82.20
25983;DHT22;13773;48.868;10.730;2023-07-13T14:56:29;25.30;84.00
25983;DHT22;13773;48.868;10.730;2023-07-13T14:58:54;25.40;84.40
25983;DHT22;13773;48.868;10.730;2023-07-13T15:01:20;24.90;85.70
25983;DHT22;13773;48.868;10.730;2023-07-13T15:03:50;25.20;84.70
25983;DHT22;13773;48.868;10.730;2023-07-13T15:06:16;25.20;84.80
25983;DHT22;13773;48.868;10.730;2023-07-13T15:08:42;25.20;84.10
25983;DHT22;13773;48.868;10.730;2023-07-13T15:11:09;25.20;86.00
25983;DHT22;13773;48.868;10.730;2023-07-13T15:13:41;25.50;84.90
25983;DHT22;13773;48.868;10.730;2023-07-13T15:16:24;25.70;85.50
25983;DHT22;13773;48.868;10.730;2023-07-13T15:18:51;26.10;84.50
25983;DHT22;13773;48.868;10.730;2023-07-13T15:21:22;26.30;84.70
25983;DHT22;13773;48.868;10.730;2023-07-13T15:23:50;26.60;84.60
25983;DHT22;13773;48.868;10.730;2023-07-13T15:26:17;26.10;84.10
25983;DHT22;13773;48.868;10.730;2023-07-13T15:28:44;25.20;85.40
25983;DHT22;13773;48.868;10.730;2023-07-13T15:31:24;25.10;85.40
25983;DHT22;13773;48.868;10.730;2023-07-13T15:33:55;25.10;85.90
25983;DHT22;13773;48.868;10.730;2023-07-13T15:36:22;25.20;85.50
25983;DHT22;13773;48.868;10.730;2023-07-13T15:38:50;25.40;85.00
25983;DHT22;13773;48.868;10.730;2023-07-13T15:41:19;25.80;83.40
25983;DHT22;13773;48.868;10.730;2023-07-13T15:43:51;25.50;84.50
25983;DHT22;13773;48.868;10.730;2023-07-13T15:46:18;25.20;85.60
25983;DHT22;13773;48.868;10.730;2023-07-13T15:48:45;25.10;86.60
25983;DHT22;13773;48.868;10.730;2023-07-13T15:51:36;25.20;85.60
25983;DHT22;13773;48.868;10.730;2023-07-13T15:54:02;25.20;86.40
25983;DHT22;13773;48.868;10.730;2023-07-13T15:56:36;25.10;85.50
25983;DHT22;13773;48.868;10.730;2023-07-13T15:59:03;25.20;86.50
25983;DHT22;13773;48.868;10.730;2023-07-13T16:01:30;25.10;86.10
25983;DHT22;13773;48.868;10.730;2023-07-13T16:03:57;25.40;85.50
25983;DHT22;13773;48.868;10.730;2023-07-13T16:06:26;25.10;86.80
25983;DHT22;13773;48.868;10.730;2023-07-13T16:08:53;24.70;85.50
25983;DHT22;13773;48.868;10.730;2023-07-13T16:11:26;24.70;87.90
25983;DHT22;13773;48.868;10.730;2023-07-13T16:13:52;24.70;87.00